Scotland, TX

2:00 PM CST on December 17, 2014 (GMT -0600)
Bowie | Change Station
CLOSE
Current Station
Airport
Location: Bowie,
Elevation: 1102 ft
Nearby Weather Stations

Elev 1102 ft 33.60 °N, 97.77 °W | Updated 25 minutes ago

Thunderstorm
Thunderstorm
40 °F
Feels Like 36 °F
N
6
Wind Variable Wind from ESE

Today
High -- | Low -- °F
--% Chance of Precip.
Yesterday
High -- | Low -- °F
Precip. -- in
7:32 AM 5:27 PM
Waning Crescent, 20% visible
Pressure 30.09 in
Visibility 10.0 miles
Clouds Scattered Clouds 1000 ft
Overcast 3700 ft
Windchill 36 °F
Dew Point 38 °F
Humidity 91%
Rainfall 0.19 in
Snow Depth Not available.
UV 1 out of 12
Pollen 7.10 out of 12
Air Quality Not available.
Flu Activity Not available.
METAR K0F2 171935Z AUTO 12005KT 10SM SCT010 OVC037 05/03 A3009 RMK AO2 LTG DSNT SW THRU NW T00450032

More Conditions Fewer Conditions

Pressure 30.09 in
Visibility 10.0 miles
Clouds Scattered Clouds 1000 ft
Overcast 3700 ft
Windchill 36 °F
Dew Point 38 °F
Humidity 91%
Rainfall 0.19 in
Snow Depth Not available.
UV 1 out of 12
Pollen 7.10 out of 12
Air Quality Not available.
Flu Activity Not available.
METAR K0F2 171935Z AUTO 12005KT 10SM SCT010 OVC037 05/03 A3009 RMK AO2 LTG DSNT SW THRU NW T00450032

More Conditions Fewer Conditions

10-Day Weather Forecast

Almanac

Astronomy

Dec. 17, 2014 Rise Set
Actual Time
Civil Twilight
Nautical Twilight
Astronomical Twilight
Moon
Length of Visible Light
Length of Day
Tomorrow will be .
, % of the Moon is Illuminated

Today's Extremes

State Highs State Lows

Community

WunderPhotos

Upload Photos

1,778,802 photos uploaded!

WunderBlogs® & News

Nearby

Air Quality

  Air Quality AQ Index Pollutant
Not available.

Snow Depth

Station Depth Elevation

Earthquake Activity

City Distance Mag. Time & Date
Minimum magnitude displayed is 2.5.

Coastal Water Temperatures

Place Temperature

Nearby Weather Stations